Time;durP1;ratioP1;P1;durP2;ratioP2;P2;SDS_P1;SDS_P2;PMS_P1;PMS_P2;Temp;Humidity;BMP_temperature;BMP_pressure;BME280_temperature;BME280_humidity;BME280_pressure;Samples;Min_cycle;Max_cycle;Signal;HPM_P1;HPM_P2
2022/06/23 00:01:33;;;;;;;12.25;11.07;;;19.70;99.90;;;;;;5019941;28;20185;-73
2022/06/23 00:03:59;;;;;;;13.13;11.43;;;19.60;99.90;;;;;;5023547;28;20195;-73
2022/06/23 00:06:36;;;;;;;12.52;11.57;;;19.60;99.90;;;;;;5035312;28;20183;-73
2022/06/23 00:09:25;;;;;;;13.05;12.05;;;19.70;99.90;;;;;;5039711;28;20175;-73
2022/06/23 00:11:51;;;;;;;12.68;11.57;;;19.70;99.90;;;;;;5035136;28;20181;-73
2022/06/23 00:14:16;;;;;;;12.27;11.38;;;19.80;99.90;;;;;;5039453;28;20196;-74
2022/06/23 00:16:43;;;;;;;12.20;11.05;;;19.80;99.90;;;;;;5032850;28;20660;-73
2022/06/23 00:19:14;;;;;;;13.05;11.85;;;19.90;99.90;;;;;;5039185;28;20189;-73
2022/06/23 00:21:48;;;;;;;12.98;11.65;;;19.80;99.90;;;;;;5033592;28;20340;-73
2022/06/23 00:24:19;;;;;;;11.93;10.88;;;19.80;99.90;;;;;;5035391;28;20197;-73
2022/06/23 00:26:45;;;;;;;12.70;11.55;;;19.80;99.90;;;;;;5040048;28;20172;-73
2022/06/23 00:29:16;;;;;;;11.52;10.52;;;19.70;99.90;;;;;;5036464;28;20184;-74
2022/06/23 00:31:56;;;;;;;12.77;11.57;;;19.70;99.90;;;;;;5040653;28;20184;-73
2022/06/23 00:34:36;;;;;;;12.30;11.25;;;19.70;99.90;;;;;;5020858;28;20310;-73
2022/06/23 00:37:15;;;;;;;12.80;11.70;;;19.70;99.90;;;;;;5021100;28;20169;-73
2022/06/23 00:40:05;;;;;;;11.00;10.20;;;19.70;99.90;;;;;;5020971;28;20200;-74
2022/06/23 00:42:38;;;;;;;12.10;10.70;;;19.80;99.90;;;;;;5026236;28;20295;-73
2022/06/23 00:45:10;;;;;;;12.73;10.95;;;19.80;99.90;;;;;;5041297;28;20222;-74
2022/06/23 00:47:56;;;;;;;12.40;11.23;;;19.80;99.90;;;;;;5026193;28;20331;-74
2022/06/23 00:50:47;;;;;;;12.75;11.45;;;19.70;99.90;;;;;;5021933;28;20181;-72
2022/06/23 00:53:13;;;;;;;10.10;9.32;;;19.60;99.90;;;;;;5018025;28;20591;-73
2022/06/23 00:56:05;;;;;;;11.13;10.23;;;19.50;99.90;;;;;;5017390;28;20178;-74
2022/06/23 00:58:41;;;;;;;10.82;9.93;;;19.50;99.90;;;;;;5035412;28;20232;-72
2022/06/23 01:01:41;;;;;;;10.68;9.68;;;19.60;99.90;;;;;;5023461;28;20169;-72
2022/06/23 01:04:33;;;;;;;11.00;9.98;;;19.70;99.90;;;;;;5013776;28;20201;-74
2022/06/23 01:07:05;;;;;;;10.70;9.73;;;19.60;99.90;;;;;;5015349;28;20170;-73
2022/06/23 01:09:39;;;;;;;9.63;8.82;;;19.60;99.90;;;;;;5027026;28;20180;-73
2022/06/23 01:12:25;;;;;;;10.70;8.98;;;19.60;99.90;;;;;;5028429;28;20179;-73
2022/06/23 01:15:15;;;;;;;9.55;8.63;;;19.60;99.90;;;;;;5028692;28;20180;-73
2022/06/23 01:17:57;;;;;;;9.80;8.85;;;19.60;99.90;;;;;;5035120;28;20172;-73
2022/06/23 01:20:51;;;;;;;8.90;8.10;;;19.60;99.90;;;;;;5034953;28;20263;-74
2022/06/23 01:23:55;;;;;;;9.07;8.38;;;19.60;99.90;;;;;;5015118;28;20208;-73
2022/06/23 01:26:42;;;;;;;8.70;7.82;;;19.50;99.90;;;;;;5014534;28;20181;-73
2022/06/23 01:29:31;;;;;;;7.93;7.32;;;19.50;99.90;;;;;;5025786;28;20263;-74
2022/06/23 01:32:10;;;;;;;7.90;7.25;;;19.50;99.90;;;;;;5014543;28;20193;-74
2022/06/23 01:34:41;;;;;;;8.50;7.65;;;19.50;99.90;;;;;;5014940;28;20260;-73
2022/06/23 01:37:35;;;;;;;8.73;7.93;;;19.50;99.90;;;;;;5014958;28;20205;-72
2022/06/23 01:40:22;;;;;;;8.18;7.55;;;19.50;99.90;;;;;;5006278;28;20244;-72
2022/06/23 01:42:57;;;;;;;8.63;7.95;;;19.50;99.90;;;;;;5014476;28;20787;-72
2022/06/23 01:45:38;;;;;;;8.65;7.90;;;19.50;99.90;;;;;;5031882;28;20184;-74
2022/06/23 01:48:03;;;;;;;8.63;7.68;;;19.50;99.90;;;;;;5043870;28;20178;-73
2022/06/23 01:50:38;;;;;;;9.07;8.25;;;19.50;99.90;;;;;;5052963;28;20171;-75
2022/06/23 01:53:27;;;;;;;8.32;7.63;;;19.50;99.90;;;;;;5033060;28;20204;-78
2022/06/23 01:56:05;;;;;;;9.15;8.30;;;19.40;99.90;;;;;;5014427;28;20177;-73
2022/06/23 01:58:57;;;;;;;10.30;8.90;;;19.40;99.90;;;;;;5030288;28;20240;-72
2022/06/23 02:01:37;;;;;;;9.27;8.57;;;19.40;99.90;;;;;;5018822;28;20169;-72
2022/06/23 02:04:13;;;;;;;10.57;9.68;;;19.40;99.90;;;;;;5014252;28;20185;-72
2022/06/23 02:06:52;;;;;;;11.65;10.73;;;19.40;99.90;;;;;;5014410;28;20222;-72
2022/06/23 02:09:31;;;;;;;11.57;10.55;;;19.40;99.90;;;;;;5014263;28;20184;-73
2022/06/23 02:11:57;;;;;;;12.30;11.30;;;19.30;99.90;;;;;;5014439;28;20173;-73
2022/06/23 02:14:44;;;;;;;12.80;11.80;;;19.10;99.90;;;;;;5014275;28;20177;-73
2022/06/23 02:17:36;;;;;;;13.07;11.98;;;19.10;99.90;;;;;;5015544;28;20177;-73
2022/06/23 02:20:15;;;;;;;14.45;13.18;;;19.00;99.90;;;;;;5033491;28;20224;-72
2022/06/23 02:22:44;;;;;;;13.13;11.95;;;19.00;99.90;;;;;;5033910;28;20196;-73
2022/06/23 02:25:13;;;;;;;14.02;12.55;;;18.90;99.90;;;;;;5026465;28;20192;-75
2022/06/23 02:27:46;;;;;;;13.27;11.90;;;18.90;99.90;;;;;;5032486;28;20206;-73
2022/06/23 02:30:18;;;;;;;14.45;13.23;;;18.80;99.90;;;;;;5033981;28;20185;-73
2022/06/23 02:33:07;;;;;;;14.98;13.63;;;18.90;99.90;;;;;;5033701;28;20656;-72
2022/06/23 02:35:57;;;;;;;13.68;12.60;;;18.80;99.90;;;;;;5013970;28;20767;-72
2022/06/23 02:38:35;;;;;;;15.60;14.10;;;18.80;99.90;;;;;;5029286;28;20254;-73
2022/06/23 02:41:21;;;;;;;16.67;15.07;;;18.90;99.90;;;;;;5027908;28;20188;-72
2022/06/23 02:43:58;;;;;;;15.30;13.85;;;18.90;99.90;;;;;;5021291;28;20559;-71
2022/06/23 02:46:46;;;;;;;14.20;13.00;;;18.80;99.90;;;;;;5013889;28;20200;-72
2022/06/23 02:49:14;;;;;;;15.55;13.60;;;18.70;99.90;;;;;;5013824;28;20174;-72
2022/06/23 02:51:55;;;;;;;14.98;13.68;;;18.60;99.90;;;;;;5013387;28;20200;-72
2022/06/23 02:54:45;;;;;;;15.07;13.55;;;18.60;99.90;;;;;;5015031;28;20611;-72
2022/06/23 02:57:13;;;;;;;14.57;13.20;;;18.50;99.90;;;;;;5033416;28;20576;-72
2022/06/23 02:59:55;;;;;;;13.70;12.40;;;18.50;99.90;;;;;;5030632;28;20205;-72
2022/06/23 03:02:52;;;;;;;14.40;13.10;;;18.40;99.90;;;;;;5013381;28;20189;-72
2022/06/23 03:05:29;;;;;;;14.43;13.02;;;18.40;99.90;;;;;;5012972;28;20181;-72
2022/06/23 03:08:00;;;;;;;14.20;12.77;;;18.50;99.90;;;;;;5013638;28;20153;-72
2022/06/23 03:10:35;;;;;;;14.90;13.55;;;18.50;99.90;;;;;;5020652;28;20173;-72
2022/06/23 03:13:25;;;;;;;14.73;13.43;;;18.50;99.90;;;;;;5011794;28;20196;-72
2022/06/23 03:15:59;;;;;;;14.82;13.15;;;18.50;99.90;;;;;;5013209;28;20165;-72
2022/06/23 03:18:50;;;;;;;14.82;13.52;;;18.50;99.90;;;;;;5013212;28;20193;-72
2022/06/23 03:21:28;;;;;;;13.57;12.27;;;18.50;99.90;;;;;;5012794;28;20194;-73
2022/06/23 03:24:08;;;;;;;15.35;11.30;;;18.40;99.90;;;;;;5013354;28;20207;-72
2022/06/23 03:26:49;;;;;;;13.05;11.65;;;18.40;99.90;;;;;;5013003;28;20248;-72
2022/06/23 03:29:34;;;;;;;14.40;10.50;;;18.50;99.90;;;;;;5011789;28;20530;-72
2022/06/23 03:32:21;;;;;;;12.60;11.60;;;18.50;99.90;;;;;;5011669;28;20239;-72
2022/06/23 03:35:01;;;;;;;13.25;12.25;;;18.60;99.90;;;;;;5022133;28;20168;-72
2022/06/23 03:37:58;;;;;;;13.77;12.60;;;18.70;99.90;;;;;;5030510;28;20180;-73
2022/06/23 03:43:31;;;;;;;11.68;10.63;;;18.80;99.90;;;;;;5012526;28;20255;-71
2022/06/23 03:46:19;;;;;;;12.05;10.85;;;18.70;99.90;;;;;;5012949;28;20609;-73
2022/06/23 03:48:58;;;;;;;13.23;10.77;;;18.90;99.90;;;;;;5033003;28;20284;-71
2022/06/23 03:51:40;;;;;;;12.48;11.30;;;18.90;99.90;;;;;;5028051;28;20662;-72
2022/06/23 03:54:25;;;;;;;12.50;11.23;;;18.90;99.90;;;;;;5012969;28;20208;-72
2022/06/23 03:56:57;;;;;;;12.65;11.45;;;19.00;99.90;;;;;;5012404;28;20180;-72
2022/06/23 03:59:35;;;;;;;12.05;10.98;;;19.00;99.90;;;;;;5012712;28;20197;-73
2022/06/23 04:02:14;;;;;;;12.25;11.27;;;19.00;99.90;;;;;;5012431;28;20164;-72
2022/06/23 04:04:46;;;;;;;12.25;11.25;;;19.10;99.90;;;;;;5010667;28;20639;-73
2022/06/23 04:07:41;;;;;;;13.88;12.75;;;19.10;99.90;;;;;;5025671;28;20181;-72
2022/06/23 04:10:14;;;;;;;13.50;12.20;;;19.20;99.90;;;;;;5015346;28;20621;-72
2022/06/23 04:12:46;;;;;;;14.60;13.25;;;19.20;99.90;;;;;;5012569;28;20706;-71
2022/06/23 04:15:22;;;;;;;14.15;12.80;;;19.20;99.90;;;;;;5012553;28;20205;-72
2022/06/23 04:17:54;;;;;;;12.88;11.77;;;19.30;99.90;;;;;;5017741;28;20264;-71
2022/06/23 04:20:32;;;;;;;13.70;12.40;;;19.40;99.90;;;;;;5027205;28;20169;-74
2022/06/23 04:23:08;;;;;;;14.52;13.18;;;19.40;99.90;;;;;;5032823;28;20262;-72
2022/06/23 04:25:47;;;;;;;16.38;14.90;;;19.50;99.90;;;;;;5031563;28;20354;-75
2022/06/23 04:28:20;;;;;;;15.57;14.20;;;19.60;99.90;;;;;;5024990;28;20227;-75
2022/06/23 04:30:46;;;;;;;16.08;13.35;;;19.60;99.90;;;;;;5025411;28;20184;-75
2022/06/23 04:33:19;;;;;;;13.52;12.43;;;19.60;99.90;;;;;;5012359;28;20224;-76
2022/06/23 04:35:50;;;;;;;14.85;13.65;;;19.70;99.90;;;;;;5016154;28;20268;-76
2022/06/23 04:38:33;;;;;;;14.20;13.00;;;19.70;99.90;;;;;;5031907;28;20279;-76
2022/06/23 04:41:18;;;;;;;14.00;12.73;;;19.70;99.90;;;;;;5014023;28;20185;-75
2022/06/23 04:44:02;;;;;;;13.05;11.60;;;19.70;99.90;;;;;;5011365;28;20672;-76
2022/06/23 04:46:35;;;;;;;11.95;10.75;;;19.70;99.90;;;;;;5012170;28;20184;-76
2022/06/23 04:49:14;;;;;;;11.60;10.55;;;19.60;99.90;;;;;;5020534;28;20682;-76
2022/06/23 04:51:48;;;;;;;12.18;11.10;;;19.60;99.90;;;;;;5029946;28;20188;-77
2022/06/23 04:54:18;;;;;;;12.68;11.57;;;19.60;99.90;;;;;;5011828;28;20224;-76
2022/06/23 04:56:49;;;;;;;12.85;11.65;;;19.70;99.90;;;;;;5012036;28;20243;-76
2022/06/23 04:59:38;;;;;;;12.25;10.93;;;19.70;99.90;;;;;;5011707;28;20231;-77
2022/06/23 05:02:47;;;;;;;12.35;11.23;;;19.80;99.90;;;;;;5022056;28;20645;-76
2022/06/23 05:05:23;;;;;;;11.40;10.50;;;19.90;99.90;;;;;;5021963;28;20180;-76
2022/06/23 05:07:55;;;;;;;11.70;10.63;;;20.00;99.90;;;;;;5022831;28;20172;-75
2022/06/23 05:10:29;;;;;;;10.00;9.13;;;20.20;99.90;;;;;;5020484;28;20624;-75
2022/06/23 05:13:03;;;;;;;10.10;9.18;;;20.30;99.90;;;;;;5027455;28;20200;-75
2022/06/23 05:15:34;;;;;;;10.52;9.45;;;20.30;99.90;;;;;;5021477;28;20165;-76
2022/06/23 05:18:20;;;;;;;9.77;8.65;;;20.40;99.90;;;;;;5028022;28;20259;-76
2022/06/23 05:20:56;;;;;;;9.43;8.55;;;20.50;99.90;;;;;;5022241;28;20188;-76
2022/06/23 05:23:39;;;;;;;10.45;9.45;;;20.60;99.90;;;;;;5023216;28;20680;-76
2022/06/23 05:26:11;;;;;;;9.98;9.07;;;20.70;99.90;;;;;;5021487;28;20197;-76
2022/06/23 05:28:37;;;;;;;9.95;8.55;;;20.70;99.90;;;;;;5028429;28;20203;-76
2022/06/23 05:31:09;;;;;;;9.88;8.75;;;20.80;99.90;;;;;;5024695;28;20668;-76
2022/06/23 05:33:42;;;;;;;10.40;9.13;;;21.00;99.90;;;;;;5019800;28;20197;-76
2022/06/23 05:36:31;;;;;;;10.05;9.00;;;21.10;99.90;;;;;;5028812;28;20689;-77
2022/06/23 05:39:03;;;;;;;9.85;8.95;;;21.40;99.90;;;;;;5023829;28;20204;-76
2022/06/23 05:41:37;;;;;;;9.50;8.48;;;21.50;99.90;;;;;;5027932;28;20173;-77
2022/06/23 05:44:16;;;;;;;10.00;8.88;;;21.70;99.90;;;;;;5022801;28;20254;-77
2022/06/23 05:46:43;;;;;;;9.60;8.80;;;21.70;99.90;;;;;;5033435;28;20534;-77
2022/06/23 05:49:19;;;;;;;8.90;8.20;;;21.70;99.90;;;;;;5018192;28;20268;-76
2022/06/23 05:51:59;;;;;;;13.02;8.88;;;21.80;99.90;;;;;;5028762;28;20180;-78
2022/06/23 05:54:43;;;;;;;9.77;8.85;;;21.80;99.90;;;;;;5025883;28;20184;-77
2022/06/23 05:57:19;;;;;;;9.95;9.05;;;21.90;99.90;;;;;;5025215;28;20707;-80
2022/06/23 05:59:51;;;;;;;9.68;8.80;;;22.00;99.90;;;;;;5025942;28;20204;-78
2022/06/23 06:02:23;;;;;;;11.90;9.55;;;22.20;99.90;;;;;;5014129;28;20188;-78
2022/06/23 06:04:52;;;;;;;13.85;10.45;;;22.20;99.90;;;;;;5016692;28;20183;-78
2022/06/23 06:07:26;;;;;;;11.10;10.10;;;22.50;99.90;;;;;;5027017;28;20189;-79
2022/06/23 06:09:53;;;;;;;11.40;10.48;;;22.50;99.90;;;;;;5031404;28;20221;-78
2022/06/23 06:12:26;;;;;;;10.95;9.77;;;22.60;99.90;;;;;;5028564;28;20618;-78
2022/06/23 06:15:01;;;;;;;11.10;10.10;;;22.90;99.90;;;;;;5017797;28;20596;-78
2022/06/23 06:17:29;;;;;;;11.02;10.02;;;23.10;99.90;;;;;;5031314;28;20215;-77
2022/06/23 06:19:59;;;;;;;11.45;10.35;;;23.40;99.90;;;;;;5033290;28;20200;-78
2022/06/23 06:22:47;;;;;;;12.10;10.98;;;23.50;99.90;;;;;;5031161;28;20208;-81
2022/06/23 06:25:23;;;;;;;12.30;11.10;;;23.80;99.90;;;;;;5016299;28;20169;-79
2022/06/23 06:27:49;;;;;;;11.13;9.93;;;23.90;99.90;;;;;;5025073;28;20172;-77
2022/06/23 06:30:19;;;;;;;9.73;8.93;;;24.00;99.90;;;;;;5027843;28;20184;-78
2022/06/23 06:32:46;;;;;;;9.00;8.20;;;24.10;99.90;;;;;;5013704;28;20631;-79
2022/06/23 06:35:38;;;;;;;10.18;9.18;;;24.40;99.90;;;;;;5023029;28;20188;-77
2022/06/23 06:38:13;;;;;;;11.00;9.90;;;24.60;99.90;;;;;;5022276;28;20211;-77
2022/06/23 06:40:43;;;;;;;10.32;9.32;;;24.90;99.90;;;;;;5022132;28;20177;-77
2022/06/23 06:43:20;;;;;;;9.88;9.07;;;25.00;99.90;;;;;;5021136;28;20196;-76
2022/06/23 06:45:47;;;;;;;10.00;9.00;;;25.00;99.90;;;;;;5028174;28;20652;-75
2022/06/23 06:48:26;;;;;;;10.90;9.10;;;25.10;99.90;;;;;;5024249;28;20181;-75
2022/06/23 06:50:58;;;;;;;9.43;8.57;;;25.30;99.90;;;;;;5016750;28;20238;-76
2022/06/23 06:53:30;;;;;;;12.68;11.48;;;25.30;99.90;;;;;;5024319;28;20203;-75
2022/06/23 06:56:13;;;;;;;10.88;9.98;;;25.30;99.90;;;;;;5023410;28;20204;-76
2022/06/23 06:58:44;;;;;;;10.93;10.00;;;25.40;99.90;;;;;;5029058;28;20216;-75
2022/06/23 07:01:20;;;;;;;11.60;10.50;;;25.50;99.90;;;;;;5024372;28;20520;-76
2022/06/23 07:03:48;;;;;;;11.18;10.13;;;25.60;99.90;;;;;;5032127;28;20189;-76
2022/06/23 07:06:40;;;;;;;11.00;9.50;;;25.80;99.90;;;;;;5023638;28;20185;-72
2022/06/23 07:09:25;;;;;;;10.02;8.68;;;25.90;99.90;;;;;;5023723;28;20177;-73
2022/06/23 07:12:21;;;;;;;12.13;8.73;;;25.90;99.90;;;;;;5022963;28;20640;-73
2022/06/23 07:14:57;;;;;;;8.80;7.95;;;25.90;99.90;;;;;;5021832;28;20211;-73
2022/06/23 07:17:32;;;;;;;10.95;7.47;;;25.80;99.90;;;;;;5021435;28;20268;-73
2022/06/23 07:20:21;;;;;;;11.23;6.80;;;25.80;99.90;;;;;;5020308;28;20227;-73
2022/06/23 07:22:56;;;;;;;7.55;6.88;;;25.80;99.90;;;;;;5018048;28;20231;-72
2022/06/23 07:25:47;;;;;;;7.55;6.63;;;25.80;99.90;;;;;;5018303;28;20173;-73
2022/06/23 07:28:37;;;;;;;8.55;5.93;;;25.90;99.90;;;;;;5026513;28;20172;-72
2022/06/23 07:31:25;;;;;;;6.72;5.93;;;26.10;99.90;;;;;;5022344;28;20370;-73
2022/06/23 07:34:00;;;;;;;6.32;4.70;;;26.20;99.90;;;;;;5031873;28;20687;-72
2022/06/23 07:36:29;;;;;;;8.23;5.18;;;26.30;99.90;;;;;;5027211;28;20197;-74
2022/06/23 07:39:16;;;;;;;5.45;4.90;;;26.40;99.90;;;;;;5012451;28;20223;-75
2022/06/23 07:41:53;;;;;;;5.80;5.13;;;26.50;99.90;;;;;;5015548;28;20256;-72
2022/06/23 07:44:24;;;;;;;8.13;5.35;;;26.70;99.90;;;;;;5018309;28;20571;-71
2022/06/23 07:46:50;;;;;;;7.35;6.18;;;27.00;99.90;;;;;;5023758;28;20176;-72
2022/06/23 07:49:17;;;;;;;6.30;5.40;;;27.20;99.90;;;;;;5018098;28;20185;-72
2022/06/23 07:51:43;;;;;;;6.60;4.97;;;27.30;99.90;;;;;;5026764;28;20265;-72
2022/06/23 07:54:17;;;;;;;4.93;4.53;;;27.60;99.90;;;;;;5031822;28;20192;-71
2022/06/23 07:56:43;;;;;;;4.93;4.38;;;27.60;99.90;;;;;;5031573;28;20172;-71
2022/06/23 07:59:15;;;;;;;7.13;4.82;;;27.80;99.90;;;;;;5013059;28;20683;-72
2022/06/23 08:01:43;;;;;;;6.95;5.22;;;27.80;99.90;;;;;;5011905;28;20180;-72
2022/06/23 08:04:27;;;;;;;4.65;4.15;;;28.00;99.90;;;;;;5013931;28;20592;-71
2022/06/23 08:06:56;;;;;;;6.32;5.15;;;28.30;99.90;;;;;;5017034;28;20177;-72
2022/06/23 08:09:24;;;;;;;6.05;5.20;;;28.00;99.90;;;;;;5011919;28;20551;-72
2022/06/23 08:14:40;;;;;;;9.80;6.43;;;28.10;99.90;;;;;;5020843;28;20223;-72
2022/06/23 08:17:11;;;;;;;10.38;6.38;;;28.20;99.90;;;;;;5031504;28;20168;-72
2022/06/23 08:19:46;;;;;;;10.45;6.53;;;28.40;99.90;;;;;;5017553;28;20196;-72
2022/06/23 08:22:20;;;;;;;7.45;6.10;;;28.50;99.90;;;;;;5011598;28;20644;-72
2022/06/23 08:24:48;;;;;;;5.07;4.30;;;28.40;99.90;;;;;;5013052;28;20176;-72
2022/06/23 08:27:18;;;;;;;6.18;5.57;;;28.50;99.90;;;;;;5031536;28;20639;-71
2022/06/23 08:29:56;;;;;;;5.40;4.90;;;28.50;99.90;;;;;;5031029;28;20635;-72
2022/06/23 08:32:23;;;;;;;9.25;4.90;;;28.30;99.90;;;;;;5014576;28;20204;-71
2022/06/23 08:34:59;;;;;;;4.70;4.35;;;28.30;99.90;;;;;;5031359;28;20180;-72
2022/06/23 08:37:24;;;;;;;6.55;4.45;;;28.20;99.90;;;;;;5031430;28;20175;-71
2022/06/23 08:39:59;;;;;;;5.60;4.70;;;28.10;99.90;;;;;;5025893;28;20205;-71
2022/06/23 08:42:45;;;;;;;5.32;4.55;;;27.90;99.90;;;;;;5011449;28;20231;-72
2022/06/23 08:45:22;;;;;;;4.60;3.75;;;27.60;99.90;;;;;;5011173;28;20272;-72
2022/06/23 08:47:49;;;;;;;3.30;3.00;;;27.50;99.90;;;;;;5029725;28;20173;-71
2022/06/23 08:50:21;;;;;;;3.60;2.92;;;27.60;99.90;;;;;;5012718;28;20188;-71
2022/06/23 08:52:55;;;;;;;2.92;2.70;;;27.90;99.90;;;;;;5014848;28;20282;-71
2022/06/23 08:55:40;;;;;;;4.43;2.78;;;28.20;99.90;;;;;;5015195;28;20198;-72
2022/06/23 08:58:09;;;;;;;3.55;2.80;;;28.50;99.90;;;;;;5015033;28;20250;-72
2022/06/23 09:00:38;;;;;;;4.40;2.90;;;29.20;99.90;;;;;;5026281;28;20173;-72
2022/06/23 09:03:10;;;;;;;4.20;2.40;;;29.60;99.90;;;;;;5034576;28;20180;-71
2022/06/23 09:05:57;;;;;;;3.50;2.80;;;29.80;99.90;;;;;;5034760;28;20246;-71
2022/06/23 09:08:45;;;;;;;2.75;2.55;;;30.00;99.90;;;;;;5025081;28;20674;-71
2022/06/23 09:11:33;;;;;;;4.68;2.60;;;30.00;99.90;;;;;;5014910;28;20192;-72
2022/06/23 09:14:21;;;;;;;2.92;2.70;;;30.20;99.90;;;;;;5020936;28;20280;-72
2022/06/23 09:16:59;;;;;;;4.30;2.60;;;30.20;99.90;;;;;;5034407;28;20713;-72
2022/06/23 09:19:43;;;;;;;6.13;2.53;;;30.10;99.90;;;;;;5029437;28;20223;-72
2022/06/23 09:22:26;;;;;;;3.47;3.17;;;30.10;99.90;;;;;;5014213;28;20260;-71
2022/06/23 09:25:24;;;;;;;3.25;2.72;;;29.90;99.90;;;;;;5014710;28;20176;-71
2022/06/23 09:28:27;;;;;;;5.90;3.00;;;30.00;99.90;;;;;;5029600;28;20196;-71
2022/06/23 09:31:37;;;;;;;4.25;2.88;;;30.20;99.90;;;;;;5019148;28;20242;-71
2022/06/23 09:34:33;;;;;;;6.55;2.78;;;30.20;99.90;;;;;;5017887;28;20773;-71
2022/06/23 09:37:34;;;;;;;3.92;2.85;;;30.20;99.90;;;;;;5016667;28;20733;-72
2022/06/23 09:40:39;;;;;;;5.22;3.20;;;30.40;99.90;;;;;;5025862;28;20221;-74
2022/06/23 09:43:11;;;;;;;4.32;3.05;;;30.50;99.90;;;;;;5012023;28;20682;-75
2022/06/23 09:45:54;;;;;;;3.35;2.80;;;30.10;99.90;;;;;;5024878;28;20179;-74
2022/06/23 09:48:32;;;;;;;4.18;3.00;;;30.00;99.90;;;;;;5027281;28;20247;-70
2022/06/23 09:51:20;;;;;;;3.65;2.80;;;30.20;99.90;;;;;;5016177;28;20191;-74
2022/06/23 09:54:04;;;;;;;4.72;3.00;;;30.50;99.90;;;;;;5024630;28;20223;-73
2022/06/23 09:56:52;;;;;;;3.70;3.28;;;30.70;99.50;;;;;;5026018;28;20246;-72
2022/06/23 09:59:38;;;;;;;5.88;2.85;;;31.20;98.80;;;;;;5022037;28;20207;-70
2022/06/23 10:02:31;;;;;;;4.40;3.15;;;31.20;97.50;;;;;;5019109;28;20188;-71
2022/06/23 10:05:30;;;;;;;3.65;2.72;;;32.10;97.70;;;;;;5015535;28;20195;-71
2022/06/23 10:07:59;;;;;;;3.47;2.70;;;34.80;92.40;;;;;;5027811;28;20176;-70
2022/06/23 10:10:47;;;;;;;3.17;2.65;;;37.70;80.60;;;;;;5033277;28;20251;-71
2022/06/23 10:13:23;;;;;;;3.17;2.38;;;39.70;68.30;;;;;;5028499;28;20247;-69
2022/06/23 10:16:33;;;;;;;2.78;2.30;;;41.20;60.10;;;;;;5013747;28;20191;-70
2022/06/23 10:19:27;;;;;;;2.78;2.13;;;42.40;57.50;;;;;;5003472;28;20306;-69
2022/06/23 10:22:32;;;;;;;4.00;2.20;;;43.30;50.30;;;;;;5014496;28;20256;-69
2022/06/23 10:25:06;;;;;;;4.30;2.30;;;42.40;53.50;;;;;;5025960;28;20179;-70
2022/06/23 10:27:48;;;;;;;3.25;2.30;;;42.80;50.90;;;;;;5017439;28;20184;-72
2022/06/23 10:30:29;;;;;;;4.05;2.05;;;42.90;50.60;;;;;;5030872;28;20646;-69
2022/06/23 10:33:22;;;;;;;3.25;2.10;;;42.10;49.50;;;;;;5032843;28;20195;-74
2022/06/23 10:36:09;;;;;;;2.47;2.13;;;40.50;53.50;;;;;;5018332;28;20188;-71
2022/06/23 10:38:35;;;;;;;2.15;1.92;;;41.60;51.10;;;;;;5020848;28;20278;-70
2022/06/23 10:41:12;;;;;;;2.00;1.90;;;41.60;50.40;;;;;;5027235;28;20183;-68
2022/06/23 10:43:51;;;;;;;2.30;2.10;;;41.00;51.30;;;;;;5024775;28;20195;-71
2022/06/23 10:46:29;;;;;;;2.67;2.17;;;39.60;53.20;;;;;;5017636;28;20186;-68
2022/06/23 10:49:32;;;;;;;5.85;2.33;;;39.00;55.70;;;;;;5030725;28;20167;-71
2022/06/23 10:52:07;;;;;;;1.75;1.60;;;40.40;53.20;;;;;;5012504;28;20188;-72
2022/06/23 10:54:39;;;;;;;2.50;2.20;;;40.90;50.00;;;;;;5027506;28;20289;-71
2022/06/23 10:57:28;;;;;;;3.00;2.25;;;39.40;51.90;;;;;;5022631;28;20187;-70
2022/06/23 10:59:53;;;;;;;2.33;2.13;;;38.50;53.30;;;;;;5023402;28;20195;-71
2022/06/23 11:02:56;;;;;;;3.60;2.17;;;38.80;55.70;;;;;;5016727;28;20573;-70
2022/06/23 11:05:43;;;;;;;2.70;2.00;;;39.40;53.80;;;;;;5019192;28;20690;-70
2022/06/23 11:08:33;;;;;;;3.65;1.77;;;40.70;51.80;;;;;;5022692;28;20662;-70
2022/06/23 11:11:05;;;;;;;1.48;1.38;;;42.30;49.10;;;;;;5029189;28;20186;-70
2022/06/23 11:13:53;;;;;;;2.95;1.95;;;43.50;45.20;;;;;;5031692;28;20689;-71
2022/06/23 11:16:20;;;;;;;2.08;1.50;;;43.60;45.60;;;;;;5028316;28;20606;-68
2022/06/23 11:18:57;;;;;;;2.13;1.75;;;44.20;42.60;;;;;;5015129;28;20292;-70
2022/06/23 11:21:38;;;;;;;3.97;2.22;;;43.70;45.10;;;;;;5015264;28;20211;-71
2022/06/23 11:24:28;;;;;;;2.65;1.73;;;44.10;45.40;;;;;;5023732;28;20294;-72
2022/06/23 11:27:51;;;;;;;6.88;2.20;;;44.10;45.10;;;;;;5016470;28;20670;-72
2022/06/23 11:30:35;;;;;;;4.50;2.55;;;43.80;47.40;;;;;;5029630;28;20303;-73
2022/06/23 11:33:13;;;;;;;2.20;2.00;;;43.40;47.20;;;;;;5029290;28;20218;-70
2022/06/23 11:36:03;;;;;;;2.67;1.92;;;43.20;48.20;;;;;;5021670;28;20195;-70
2022/06/23 11:39:08;;;;;;;2.33;1.95;;;43.80;46.50;;;;;;5015876;28;20204;-72
2022/06/23 11:41:40;;;;;;;3.67;2.20;;;44.20;45.10;;;;;;5035720;28;20702;-68
2022/06/23 11:44:43;;;;;;;3.95;2.08;;;44.10;45.10;;;;;;5017640;28;20200;-68
2022/06/23 11:47:26;;;;;;;2.97;1.90;;;43.50;45.40;;;;;;5023433;28;20183;-71
2022/06/23 11:50:06;;;;;;;4.40;2.22;;;43.60;46.10;;;;;;5040376;28;20179;-71
2022/06/23 11:52:38;;;;;;;5.68;1.90;;;43.40;46.50;;;;;;5028496;28;20250;-72
2022/06/23 11:55:36;;;;;;;4.20;2.45;;;42.70;46.30;;;;;;5027565;28;20535;-72
2022/06/23 11:58:23;;;;;;;3.15;1.85;;;42.00;47.30;;;;;;5019281;28;20250;-70
2022/06/23 12:01:21;;;;;;;3.75;2.40;;;41.80;47.60;;;;;;5025879;28;20192;-69
2022/06/23 12:04:08;;;;;;;4.95;2.05;;;41.60;47.60;;;;;;5020390;28;20274;-70
2022/06/23 12:06:59;;;;;;;2.47;2.25;;;40.10;49.30;;;;;;5031911;28;20191;-69
2022/06/23 12:09:46;;;;;;;2.10;1.83;;;38.40;51.90;;;;;;5027736;28;20263;-70
2022/06/23 12:12:11;;;;;;;3.55;2.15;;;37.10;54.60;;;;;;5023139;28;20187;-70
2022/06/23 12:14:37;;;;;;;2.13;1.80;;;37.90;55.50;;;;;;5023927;28;20554;-70
2022/06/23 12:17:07;;;;;;;4.15;2.28;;;39.20;53.10;;;;;;5020138;28;20191;-69
2022/06/23 12:20:07;;;;;;;2.00;1.90;;;39.20;52.20;;;;;;5021014;28;20211;-69
2022/06/23 12:22:39;;;;;;;2.22;1.90;;;38.70;52.40;;;;;;5018713;28;20200;-70
2022/06/23 12:25:26;;;;;;;1.70;1.60;;;39.30;52.10;;;;;;5018422;28;20173;-70
2022/06/23 12:28:07;;;;;;;3.03;2.10;;;39.60;51.00;;;;;;5022656;28;20175;-71
2022/06/23 12:30:42;;;;;;;3.88;1.92;;;39.60;51.40;;;;;;5021292;28;20559;-72
2022/06/23 12:33:14;;;;;;;2.92;1.85;;;40.60;49.10;;;;;;5020087;28;20249;-71
2022/06/23 12:35:47;;;;;;;2.92;1.70;;;42.00;47.70;;;;;;5025568;28;20186;-71
2022/06/23 12:38:21;;;;;;;2.28;1.77;;;42.40;45.50;;;;;;5026214;28;20173;-72
2022/06/23 12:40:59;;;;;;;4.38;2.10;;;41.80;47.00;;;;;;5029365;28;20169;-72
2022/06/23 12:43:36;;;;;;;1.48;1.38;;;42.20;47.00;;;;;;5019649;28;20520;-71
2022/06/23 12:46:31;;;;;;;2.78;1.92;;;44.80;43.30;;;;;;5020929;28;20178;-71
2022/06/23 12:49:05;;;;;;;1.48;1.30;;;47.20;41.00;;;;;;5026140;28;20176;-71
2022/06/23 12:51:50;;;;;;;1.75;1.65;;;48.50;40.10;;;;;;5023028;28;20248;-71
2022/06/23 12:54:41;;;;;;;2.95;1.60;;;51.30;37.20;;;;;;5034653;28;20206;-73
2022/06/23 12:57:09;;;;;;;3.95;2.00;;;52.20;35.50;;;;;;5027273;28;20203;-72
2022/06/23 12:59:48;;;;;;;3.20;2.10;;;53.50;34.60;;;;;;5030304;28;20280;-71
2022/06/23 13:02:32;;;;;;;2.72;1.60;;;54.40;33.40;;;;;;5019120;28;20184;-72
2022/06/23 13:05:39;;;;;;;1.35;1.25;;;54.60;33.40;;;;;;5013252;28;20187;-72
2022/06/23 13:08:11;;;;;;;1.60;1.50;;;54.90;32.90;;;;;;5026733;28;20188;-71
2022/06/23 13:10:45;;;;;;;1.98;1.70;;;55.90;31.50;;;;;;5023101;28;20177;-72
2022/06/23 13:13:45;;;;;;;2.60;1.60;;;56.80;31.20;;;;;;5025552;28;20678;-76
2022/06/23 13:16:39;;;;;;;2.70;1.90;;;56.80;30.80;;;;;;5023233;28;20200;-75
2022/06/23 13:19:20;;;;;;;2.05;1.52;;;58.30;30.20;;;;;;5020778;28;20223;-75
2022/06/23 13:21:46;;;;;;;2.15;1.60;;;56.20;30.60;;;;;;5025049;28;20175;-76
2022/06/23 13:24:34;;;;;;;2.00;1.30;;;54.90;31.50;;;;;;5020915;28;20857;-75
2022/06/23 13:27:00;;;;;;;2.10;1.50;;;57.00;30.10;;;;;;5025093;28;20180;-75
2022/06/23 13:29:55;;;;;;;1.67;1.55;;;57.80;29.60;;;;;;5025313;28;20325;-75
2022/06/23 13:32:41;;;;;;;3.13;1.52;;;59.20;29.10;;;;;;5016617;28;20255;-76
2022/06/23 13:35:16;;;;;;;2.65;1.50;;;60.80;28.20;;;;;;5019803;28;20182;-75
2022/06/23 13:37:53;;;;;;;1.27;1.13;;;61.00;27.50;;;;;;5023147;28;20179;-76
2022/06/23 13:40:46;;;;;;;1.92;1.45;;;62.20;27.20;;;;;;5015681;28;20219;-76
2022/06/23 13:43:19;;;;;;;1.40;1.30;;;64.60;26.90;;;;;;5021288;28;20244;-78
2022/06/23 13:46:02;;;;;;;2.08;1.30;;;65.10;26.20;;;;;;5024762;28;20697;-77
2022/06/23 13:48:48;;;;;;;2.72;1.60;;;65.90;26.00;;;;;;5020971;28;20207;-76